sensor_id;sensor_type;location;lat;lon;timestamp;pressure;altitude;pressure_sealevel;temperature;humidity
19286;BME280;9776;50.798;6.430;2023-04-29T00:01:01;99987.06;;;14.69;65.12
19286;BME280;9776;50.798;6.430;2023-04-29T00:03:28;99988.81;;;14.62;65.17
19286;BME280;9776;50.798;6.430;2023-04-29T00:05:56;99989.53;;;14.56;65.16
19286;BME280;9776;50.798;6.430;2023-04-29T00:08:23;99998.88;;;14.52;64.76
19286;BME280;9776;50.798;6.430;2023-04-29T00:10:51;99988.81;;;14.33;65.03
19286;BME280;9776;50.798;6.430;2023-04-29T00:13:18;99999.38;;;14.18;65.27
19286;BME280;9776;50.798;6.430;2023-04-29T00:15:45;100001.44;;;14.08;65.13
19286;BME280;9776;50.798;6.430;2023-04-29T00:18:12;99997.22;;;13.99;65.20
19286;BME280;9776;50.798;6.430;2023-04-29T00:20:39;100009.81;;;13.97;65.11
19286;BME280;9776;50.798;6.430;2023-04-29T00:23:06;100004.25;;;13.92;64.81
19286;BME280;9776;50.798;6.430;2023-04-29T00:25:33;100006.06;;;13.92;64.77
19286;BME280;9776;50.798;6.430;2023-04-29T00:28:01;100007.25;;;13.89;64.79
19286;BME280;9776;50.798;6.430;2023-04-29T00:30:27;100015.22;;;13.89;64.58
19286;BME280;9776;50.798;6.430;2023-04-29T00:32:54;100018.97;;;13.95;64.41
19286;BME280;9776;50.798;6.430;2023-04-29T00:35:21;100022.47;;;13.95;64.44
19286;BME280;9776;50.798;6.430;2023-04-29T00:37:47;100020.50;;;13.89;64.22
19286;BME280;9776;50.798;6.430;2023-04-29T00:40:14;100023.03;;;13.83;64.37
19286;BME280;9776;50.798;6.430;2023-04-29T00:42:41;100022.25;;;13.82;64.30
19286;BME280;9776;50.798;6.430;2023-04-29T00:45:10;100026.72;;;13.82;64.16
19286;BME280;9776;50.798;6.430;2023-04-29T00:47:37;100025.34;;;13.86;64.15
19286;BME280;9776;50.798;6.430;2023-04-29T00:50:04;100023.34;;;13.88;64.05
19286;BME280;9776;50.798;6.430;2023-04-29T00:52:32;100021.97;;;13.92;64.16
19286;BME280;9776;50.798;6.430;2023-04-29T00:54:59;100021.47;;;13.96;64.03
19286;BME280;9776;50.798;6.430;2023-04-29T00:57:27;100018.63;;;13.98;63.99
19286;BME280;9776;50.798;6.430;2023-04-29T00:59:54;100019.16;;;13.93;63.94
19286;BME280;9776;50.798;6.430;2023-04-29T01:02:23;100026.00;;;13.88;64.06
19286;BME280;9776;50.798;6.430;2023-04-29T01:04:50;100025.53;;;13.84;64.05
19286;BME280;9776;50.798;6.430;2023-04-29T01:07:24;100027.06;;;13.79;64.07
19286;BME280;9776;50.798;6.430;2023-04-29T01:10:02;100031.25;;;13.73;64.07
19286;BME280;9776;50.798;6.430;2023-04-29T01:12:32;100025.28;;;13.71;64.02
19286;BME280;9776;50.798;6.430;2023-04-29T01:15:07;100029.13;;;13.69;64.10
19286;BME280;9776;50.798;6.430;2023-04-29T01:17:40;100029.78;;;13.71;64.13
19286;BME280;9776;50.798;6.430;2023-04-29T01:20:08;100033.91;;;13.73;63.95
19286;BME280;9776;50.798;6.430;2023-04-29T01:22:35;100040.56;;;13.69;64.12
19286;BME280;9776;50.798;6.430;2023-04-29T01:25:05;100040.28;;;13.64;64.23
19286;BME280;9776;50.798;6.430;2023-04-29T01:27:33;100042.44;;;13.60;64.31
19286;BME280;9776;50.798;6.430;2023-04-29T01:30:09;100036.72;;;13.49;64.30
19286;BME280;9776;50.798;6.430;2023-04-29T01:32:45;100044.19;;;13.45;64.25
19286;BME280;9776;50.798;6.430;2023-04-29T01:35:37;100040.19;;;13.49;64.12
19286;BME280;9776;50.798;6.430;2023-04-29T01:38:16;100044.81;;;13.55;63.97
19286;BME280;9776;50.798;6.430;2023-04-29T01:40:48;100057.72;;;13.58;64.06
19286;BME280;9776;50.798;6.430;2023-04-29T01:43:22;100048.78;;;13.51;64.05
19286;BME280;9776;50.798;6.430;2023-04-29T01:45:52;100053.31;;;13.43;64.07
19286;BME280;9776;50.798;6.430;2023-04-29T01:48:22;100054.00;;;13.37;64.18
19286;BME280;9776;50.798;6.430;2023-04-29T01:50:49;100050.41;;;13.30;64.53
19286;BME280;9776;50.798;6.430;2023-04-29T01:53:16;100055.88;;;13.28;64.62
19286;BME280;9776;50.798;6.430;2023-04-29T01:55:43;100056.22;;;13.25;64.44
19286;BME280;9776;50.798;6.430;2023-04-29T01:58:11;100052.41;;;13.28;64.70
19286;BME280;9776;50.798;6.430;2023-04-29T02:00:37;100053.75;;;13.24;64.76
19286;BME280;9776;50.798;6.430;2023-04-29T02:03:04;100052.59;;;13.26;64.78
19286;BME280;9776;50.798;6.430;2023-04-29T02:05:30;100049.41;;;13.31;64.67
19286;BME280;9776;50.798;6.430;2023-04-29T02:07:58;100060.84;;;13.31;64.54
19286;BME280;9776;50.798;6.430;2023-04-29T02:10:25;100056.56;;;13.22;64.81
19286;BME280;9776;50.798;6.430;2023-04-29T02:12:52;100060.09;;;13.15;64.85
19286;BME280;9776;50.798;6.430;2023-04-29T02:15:20;100064.22;;;13.17;64.94
19286;BME280;9776;50.798;6.430;2023-04-29T02:17:46;100055.97;;;13.12;65.19
19286;BME280;9776;50.798;6.430;2023-04-29T02:20:13;100065.53;;;13.13;65.36
19286;BME280;9776;50.798;6.430;2023-04-29T02:22:40;100063.09;;;13.12;65.31
19286;BME280;9776;50.798;6.430;2023-04-29T02:25:07;100059.25;;;13.14;65.38
19286;BME280;9776;50.798;6.430;2023-04-29T02:27:34;100063.38;;;13.17;65.57
19286;BME280;9776;50.798;6.430;2023-04-29T02:30:00;100070.00;;;13.21;65.49
19286;BME280;9776;50.798;6.430;2023-04-29T02:32:30;100068.00;;;13.23;65.41
19286;BME280;9776;50.798;6.430;2023-04-29T02:34:57;100075.13;;;13.22;65.23
19286;BME280;9776;50.798;6.430;2023-04-29T02:37:24;100076.13;;;13.21;65.63
19286;BME280;9776;50.798;6.430;2023-04-29T02:39:50;100076.47;;;13.18;65.46
19286;BME280;9776;50.798;6.430;2023-04-29T02:42:17;100084.78;;;13.15;65.75
19286;BME280;9776;50.798;6.430;2023-04-29T02:44:44;100087.75;;;13.12;65.88
19286;BME280;9776;50.798;6.430;2023-04-29T02:47:11;100086.94;;;13.12;65.98
19286;BME280;9776;50.798;6.430;2023-04-29T02:49:39;100085.59;;;13.07;65.93
19286;BME280;9776;50.798;6.430;2023-04-29T02:52:05;100084.28;;;13.03;65.84
19286;BME280;9776;50.798;6.430;2023-04-29T02:54:32;100092.72;;;12.99;65.91
19286;BME280;9776;50.798;6.430;2023-04-29T02:56:58;100093.78;;;12.90;66.05
19286;BME280;9776;50.798;6.430;2023-04-29T02:59:25;100087.16;;;12.86;66.14
19286;BME280;9776;50.798;6.430;2023-04-29T03:01:52;100102.72;;;12.89;66.35
19286;BME280;9776;50.798;6.430;2023-04-29T03:04:19;100097.41;;;12.89;66.11
19286;BME280;9776;50.798;6.430;2023-04-29T03:06:47;100099.41;;;12.87;66.46
19286;BME280;9776;50.798;6.430;2023-04-29T03:09:14;100099.41;;;12.87;66.45
19286;BME280;9776;50.798;6.430;2023-04-29T03:11:40;100108.16;;;12.87;66.46
19286;BME280;9776;50.798;6.430;2023-04-29T03:14:07;100102.41;;;12.84;66.40
19286;BME280;9776;50.798;6.430;2023-04-29T03:16:34;100102.88;;;12.79;66.62
19286;BME280;9776;50.798;6.430;2023-04-29T03:19:00;100105.03;;;12.76;66.64
19286;BME280;9776;50.798;6.430;2023-04-29T03:21:27;100107.88;;;12.74;66.81
19286;BME280;9776;50.798;6.430;2023-04-29T03:23:55;100105.56;;;12.71;66.68
19286;BME280;9776;50.798;6.430;2023-04-29T03:26:22;100102.06;;;12.71;66.86
19286;BME280;9776;50.798;6.430;2023-04-29T03:28:49;100107.69;;;12.76;66.82
19286;BME280;9776;50.798;6.430;2023-04-29T03:31:15;100110.34;;;12.76;66.57
19286;BME280;9776;50.798;6.430;2023-04-29T03:33:44;100116.78;;;12.73;66.66
19286;BME280;9776;50.798;6.430;2023-04-29T03:36:11;100116.81;;;12.65;67.13
19286;BME280;9776;50.798;6.430;2023-04-29T03:38:38;100119.97;;;12.61;66.98
19286;BME280;9776;50.798;6.430;2023-04-29T03:41:07;100115.66;;;12.60;67.17
19286;BME280;9776;50.798;6.430;2023-04-29T03:43:33;100122.47;;;12.54;67.46
19286;BME280;9776;50.798;6.430;2023-04-29T03:46:00;100121.78;;;12.44;67.57
19286;BME280;9776;50.798;6.430;2023-04-29T03:48:27;100124.63;;;12.42;67.61
19286;BME280;9776;50.798;6.430;2023-04-29T03:50:53;100121.31;;;12.40;67.84
19286;BME280;9776;50.798;6.430;2023-04-29T03:53:20;100126.44;;;12.34;68.09
19286;BME280;9776;50.798;6.430;2023-04-29T03:55:47;100124.97;;;12.31;67.89
19286;BME280;9776;50.798;6.430;2023-04-29T03:58:15;100121.97;;;12.26;67.89
19286;BME280;9776;50.798;6.430;2023-04-29T04:00:41;100135.22;;;12.26;68.19
19286;BME280;9776;50.798;6.430;2023-04-29T04:03:08;100129.25;;;12.24;68.45
19286;BME280;9776;50.798;6.430;2023-04-29T04:05:35;100136.84;;;12.19;68.61
19286;BME280;9776;50.798;6.430;2023-04-29T04:08:01;100139.50;;;12.11;68.69
19286;BME280;9776;50.798;6.430;2023-04-29T04:10:28;100136.84;;;12.03;69.00
19286;BME280;9776;50.798;6.430;2023-04-29T04:12:54;100135.81;;;11.96;69.20
19286;BME280;9776;50.798;6.430;2023-04-29T04:15:23;100137.81;;;11.94;69.52
19286;BME280;9776;50.798;6.430;2023-04-29T04:17:50;100148.06;;;11.97;69.43
19286;BME280;9776;50.798;6.430;2023-04-29T04:20:19;100147.06;;;11.98;69.53
19286;BME280;9776;50.798;6.430;2023-04-29T04:22:46;100146.72;;;11.93;69.76
19286;BME280;9776;50.798;6.430;2023-04-29T04:25:12;100152.34;;;11.90;69.75
19286;BME280;9776;50.798;6.430;2023-04-29T04:27:39;100151.03;;;11.86;70.02
19286;BME280;9776;50.798;6.430;2023-04-29T04:30:07;100154.66;;;11.85;70.16
19286;BME280;9776;50.798;6.430;2023-04-29T04:32:35;100160.78;;;11.85;70.36
19286;BME280;9776;50.798;6.430;2023-04-29T04:35:02;100152.34;;;11.82;70.48
19286;BME280;9776;50.798;6.430;2023-04-29T04:37:28;100164.38;;;11.76;70.74
19286;BME280;9776;50.798;6.430;2023-04-29T04:39:55;100164.69;;;11.73;70.87
19286;BME280;9776;50.798;6.430;2023-04-29T04:42:22;100168.50;;;11.71;71.01
19286;BME280;9776;50.798;6.430;2023-04-29T04:44:48;100179.41;;;11.76;71.05
19286;BME280;9776;50.798;6.430;2023-04-29T04:47:15;100176.44;;;11.79;71.00
19286;BME280;9776;50.798;6.430;2023-04-29T04:49:43;100183.72;;;11.77;71.35
19286;BME280;9776;50.798;6.430;2023-04-29T04:52:10;100191.28;;;11.72;71.34
19286;BME280;9776;50.798;6.430;2023-04-29T04:54:37;100195.38;;;11.66;71.51
19286;BME280;9776;50.798;6.430;2023-04-29T04:57:03;100203.78;;;11.62;71.72
19286;BME280;9776;50.798;6.430;2023-04-29T04:59:30;100204.09;;;11.59;71.85
19286;BME280;9776;50.798;6.430;2023-04-29T05:01:58;100210.84;;;11.53;71.76
19286;BME280;9776;50.798;6.430;2023-04-29T05:04:24;100211.84;;;11.52;72.04
19286;BME280;9776;50.798;6.430;2023-04-29T05:06:52;100219.44;;;11.55;71.97
19286;BME280;9776;50.798;6.430;2023-04-29T05:09:19;100218.13;;;11.51;72.31
19286;BME280;9776;50.798;6.430;2023-04-29T05:11:45;100224.53;;;11.49;72.28
19286;BME280;9776;50.798;6.430;2023-04-29T05:14:12;100228.84;;;11.50;72.30
19286;BME280;9776;50.798;6.430;2023-04-29T05:16:39;100227.50;;;11.46;72.33
19286;BME280;9776;50.798;6.430;2023-04-29T05:19:05;100240.34;;;11.40;72.67
19286;BME280;9776;50.798;6.430;2023-04-29T05:21:33;100242.47;;;11.37;72.65
19286;BME280;9776;50.798;6.430;2023-04-29T05:24:01;100244.75;;;11.32;72.67
19286;BME280;9776;50.798;6.430;2023-04-29T05:26:28;100243.47;;;11.36;72.84
19286;BME280;9776;50.798;6.430;2023-04-29T05:28:55;100251.41;;;11.36;73.04
19286;BME280;9776;50.798;6.430;2023-04-29T05:31:21;100249.72;;;11.35;72.92
19286;BME280;9776;50.798;6.430;2023-04-29T05:33:48;100256.81;;;11.34;73.14
19286;BME280;9776;50.798;6.430;2023-04-29T05:36:14;100249.06;;;11.33;73.07
19286;BME280;9776;50.798;6.430;2023-04-29T05:38:41;100259.94;;;11.30;73.29
19286;BME280;9776;50.798;6.430;2023-04-29T05:41:10;100266.59;;;11.34;73.29
19286;BME280;9776;50.798;6.430;2023-04-29T05:43:38;100264.00;;;11.42;73.05
19286;BME280;9776;50.798;6.430;2023-04-29T05:46:04;100269.81;;;11.46;73.11
19286;BME280;9776;50.798;6.430;2023-04-29T05:48:31;100267.16;;;11.46;73.16
19286;BME280;9776;50.798;6.430;2023-04-29T05:50:58;100273.94;;;11.48;73.09
19286;BME280;9776;50.798;6.430;2023-04-29T05:53:24;100272.09;;;11.49;73.10
19286;BME280;9776;50.798;6.430;2023-04-29T05:55:51;100280.72;;;11.51;73.30
19286;BME280;9776;50.798;6.430;2023-04-29T05:58:19;100284.03;;;11.53;73.21
19286;BME280;9776;50.798;6.430;2023-04-29T06:00:46;100288.34;;;11.54;73.06
19286;BME280;9776;50.798;6.430;2023-04-29T06:03:13;100293.63;;;11.54;73.23
19286;BME280;9776;50.798;6.430;2023-04-29T06:05:41;100302.53;;;11.53;73.18
19286;BME280;9776;50.798;6.430;2023-04-29T06:08:07;100297.56;;;11.50;73.47
19286;BME280;9776;50.798;6.430;2023-04-29T06:10:34;100304.00;;;11.47;73.54
19286;BME280;9776;50.798;6.430;2023-04-29T06:13:01;100306.00;;;11.53;73.54
19286;BME280;9776;50.798;6.430;2023-04-29T06:15:29;100316.09;;;11.58;73.30
19286;BME280;9776;50.798;6.430;2023-04-29T06:17:56;100314.00;;;11.61;73.37
19286;BME280;9776;50.798;6.430;2023-04-29T06:20:22;100318.81;;;11.66;73.01
19286;BME280;9776;50.798;6.430;2023-04-29T06:22:49;100319.63;;;11.66;73.27
19286;BME280;9776;50.798;6.430;2023-04-29T06:25:16;100322.75;;;11.62;73.35
19286;BME280;9776;50.798;6.430;2023-04-29T06:27:42;100324.09;;;11.66;73.11
19286;BME280;9776;50.798;6.430;2023-04-29T06:30:10;100321.59;;;11.64;73.24
19286;BME280;9776;50.798;6.430;2023-04-29T06:32:38;100327.56;;;11.66;73.21
19286;BME280;9776;50.798;6.430;2023-04-29T06:35:05;100330.63;;;11.71;73.32
19286;BME280;9776;50.798;6.430;2023-04-29T06:37:32;100337.94;;;11.77;73.00
19286;BME280;9776;50.798;6.430;2023-04-29T06:39:59;100343.88;;;11.79;72.89
19286;BME280;9776;50.798;6.430;2023-04-29T06:42:25;100340.09;;;11.82;73.02
19286;BME280;9776;50.798;6.430;2023-04-29T06:44:52;100344.25;;;11.92;72.81
19286;BME280;9776;50.798;6.430;2023-04-29T06:47:19;100350.81;;;12.06;72.64
19286;BME280;9776;50.798;6.430;2023-04-29T06:49:47;100345.53;;;12.14;72.24
19286;BME280;9776;50.798;6.430;2023-04-29T06:52:14;100348.00;;;12.16;72.32
19286;BME280;9776;50.798;6.430;2023-04-29T06:54:40;100356.16;;;12.22;72.23
19286;BME280;9776;50.798;6.430;2023-04-29T06:57:07;100358.81;;;12.30;71.94
19286;BME280;9776;50.798;6.430;2023-04-29T06:59:33;100356.16;;;12.22;71.94
19286;BME280;9776;50.798;6.430;2023-04-29T07:02:00;100359.13;;;12.19;72.11
19286;BME280;9776;50.798;6.430;2023-04-29T07:04:27;100354.66;;;12.20;72.16
19286;BME280;9776;50.798;6.430;2023-04-29T07:06:56;100361.41;;;12.14;72.14
19286;BME280;9776;50.798;6.430;2023-04-29T07:09:23;100369.31;;;12.06;72.09
19286;BME280;9776;50.798;6.430;2023-04-29T07:11:52;100369.63;;;12.03;72.25
19286;BME280;9776;50.798;6.430;2023-04-29T07:14:19;100373.59;;;12.07;72.13
19286;BME280;9776;50.798;6.430;2023-04-29T07:16:46;100384.06;;;12.09;72.12
19286;BME280;9776;50.798;6.430;2023-04-29T07:19:13;100383.34;;;12.07;72.05
19286;BME280;9776;50.798;6.430;2023-04-29T07:21:39;100390.97;;;12.10;71.99
19286;BME280;9776;50.798;6.430;2023-04-29T07:24:07;100393.28;;;12.05;71.80
19286;BME280;9776;50.798;6.430;2023-04-29T07:26:34;100395.09;;;12.04;71.99
19286;BME280;9776;50.798;6.430;2023-04-29T07:29:01;100397.06;;;12.02;72.04
19286;BME280;9776;50.798;6.430;2023-04-29T07:31:27;100401.69;;;12.00;72.11
19286;BME280;9776;50.798;6.430;2023-04-29T07:33:54;100395.72;;;11.98;71.87
19286;BME280;9776;50.798;6.430;2023-04-29T07:36:21;100410.25;;;11.94;72.17
19286;BME280;9776;50.798;6.430;2023-04-29T07:38:47;100401.94;;;11.89;72.20
19286;BME280;9776;50.798;6.430;2023-04-29T07:41:15;100403.59;;;11.90;71.93
19286;BME280;9776;50.798;6.430;2023-04-29T07:43:42;100402.75;;;11.89;71.94
19286;BME280;9776;50.798;6.430;2023-04-29T07:46:09;100405.09;;;11.92;71.96
19286;BME280;9776;50.798;6.430;2023-04-29T07:48:36;100418.72;;;11.98;72.05
19286;BME280;9776;50.798;6.430;2023-04-29T07:51:03;100409.47;;;12.02;71.76
19286;BME280;9776;50.798;6.430;2023-04-29T07:53:30;100411.13;;;12.03;71.88
19286;BME280;9776;50.798;6.430;2023-04-29T07:55:57;100407.47;;;12.04;71.99
19286;BME280;9776;50.798;6.430;2023-04-29T07:58:26;100410.97;;;12.04;72.00
19286;BME280;9776;50.798;6.430;2023-04-29T08:00:53;100418.53;;;11.99;71.76
19286;BME280;9776;50.798;6.430;2023-04-29T08:03:20;100422.69;;;12.02;72.12
19286;BME280;9776;50.798;6.430;2023-04-29T08:05:47;100426.31;;;12.01;72.04
19286;BME280;9776;50.798;6.430;2023-04-29T08:08:15;100420.22;;;12.00;71.87
19286;BME280;9776;50.798;6.430;2023-04-29T08:10:42;100432.28;;;12.03;72.16
19286;BME280;9776;50.798;6.430;2023-04-29T08:13:09;100436.13;;;12.08;71.82
19286;BME280;9776;50.798;6.430;2023-04-29T08:15:37;100440.28;;;12.11;71.78
19286;BME280;9776;50.798;6.430;2023-04-29T08:18:03;100444.72;;;12.10;71.94
19286;BME280;9776;50.798;6.430;2023-04-29T08:20:30;100436.97;;;12.09;72.07
19286;BME280;9776;50.798;6.430;2023-04-29T08:22:57;100451.34;;;12.06;72.11
19286;BME280;9776;50.798;6.430;2023-04-29T08:25:24;100450.28;;;11.99;72.40
19286;BME280;9776;50.798;6.430;2023-04-29T08:27:53;100452.94;;;11.99;72.44
19286;BME280;9776;50.798;6.430;2023-04-29T08:30:20;100449.00;;;12.03;72.11
19286;BME280;9776;50.798;6.430;2023-04-29T08:32:48;100453.31;;;12.12;72.14
19286;BME280;9776;50.798;6.430;2023-04-29T08:35:15;100460.03;;;12.24;71.80
19286;BME280;9776;50.798;6.430;2023-04-29T08:37:41;100460.91;;;12.33;71.67
19286;BME280;9776;50.798;6.430;2023-04-29T08:40:09;100465.34;;;12.32;71.31
19286;BME280;9776;50.798;6.430;2023-04-29T08:42:36;100468.88;;;12.41;71.41
19286;BME280;9776;50.798;6.430;2023-04-29T08:45:03;100469.59;;;12.51;70.87
19286;BME280;9776;50.798;6.430;2023-04-29T08:47:30;100483.19;;;12.56;70.97
19286;BME280;9776;50.798;6.430;2023-04-29T08:50:02;100478.41;;;12.60;70.46
19286;BME280;9776;50.798;6.430;2023-04-29T08:52:29;100471.69;;;12.73;70.26
19286;BME280;9776;50.798;6.430;2023-04-29T08:54:56;100478.00;;;12.80;69.96
19286;BME280;9776;50.798;6.430;2023-04-29T08:57:24;100476.19;;;12.81;70.03
19286;BME280;9776;50.798;6.430;2023-04-29T08:59:51;100482.13;;;12.75;69.88
19286;BME280;9776;50.798;6.430;2023-04-29T09:02:19;100486.28;;;12.77;69.81
19286;BME280;9776;50.798;6.430;2023-04-29T09:04:52;100488.56;;;12.72;70.02
19286;BME280;9776;50.798;6.430;2023-04-29T09:07:22;100479.13;;;12.70;70.22
19286;BME280;9776;50.798;6.430;2023-04-29T09:09:50;100493.03;;;12.72;70.04
19286;BME280;9776;50.798;6.430;2023-04-29T09:12:18;100484.13;;;12.81;69.83
19286;BME280;9776;50.798;6.430;2023-04-29T09:14:45;100488.63;;;12.88;69.61
19286;BME280;9776;50.798;6.430;2023-04-29T09:17:11;100498.97;;;13.07;69.01
19286;BME280;9776;50.798;6.430;2023-04-29T09:19:40;100496.22;;;13.25;68.40
19286;BME280;9776;50.798;6.430;2023-04-29T09:22:07;100491.28;;;13.46;67.94
19286;BME280;9776;50.798;6.430;2023-04-29T09:24:35;100490.63;;;13.69;67.27
19286;BME280;9776;50.798;6.430;2023-04-29T09:27:02;100489.28;;;13.97;66.39
19286;BME280;9776;50.798;6.430;2023-04-29T09:29:29;100504.72;;;14.09;66.00
19286;BME280;9776;50.798;6.430;2023-04-29T09:31:57;100502.41;;;13.98;66.11
19286;BME280;9776;50.798;6.430;2023-04-29T09:34:30;100496.59;;;13.95;66.13
19286;BME280;9776;50.798;6.430;2023-04-29T09:36:57;100505.22;;;14.05;65.51
19286;BME280;9776;50.798;6.430;2023-04-29T09:39:24;100512.19;;;14.06;65.46
19286;BME280;9776;50.798;6.430;2023-04-29T09:41:59;100511.50;;;14.12;64.99
19286;BME280;9776;50.798;6.430;2023-04-29T09:44:29;100514.50;;;14.09;65.03
19286;BME280;9776;50.798;6.430;2023-04-29T09:46:57;100513.53;;;14.02;64.62
19286;BME280;9776;50.798;6.430;2023-04-29T09:49:25;100525.28;;;13.91;65.09
19286;BME280;9776;50.798;6.430;2023-04-29T09:51:54;100520.31;;;13.80;65.24
19286;BME280;9776;50.798;6.430;2023-04-29T09:54:22;100531.09;;;13.79;65.02
19286;BME280;9776;50.798;6.430;2023-04-29T09:56:51;100529.63;;;13.76;64.77
19286;BME280;9776;50.798;6.430;2023-04-29T09:59:19;100535.91;;;13.59;64.78
19286;BME280;9776;50.798;6.430;2023-04-29T10:01:48;100533.38;;;13.49;65.03
19286;BME280;9776;50.798;6.430;2023-04-29T10:04:16;100531.56;;;13.50;64.66
19286;BME280;9776;50.798;6.430;2023-04-29T10:06:43;100536.69;;;13.51;64.76
19286;BME280;9776;50.798;6.430;2023-04-29T10:09:12;100537.72;;;13.50;64.85
19286;BME280;9776;50.798;6.430;2023-04-29T10:11:41;100528.75;;;13.51;64.40
19286;BME280;9776;50.798;6.430;2023-04-29T10:14:11;100532.91;;;13.86;63.69
19286;BME280;9776;50.798;6.430;2023-04-29T10:16:45;100529.91;;;14.30;62.73
19286;BME280;9776;50.798;6.430;2023-04-29T10:19:23;100530.94;;;14.92;61.46
19286;BME280;9776;50.798;6.430;2023-04-29T10:21:52;100532.75;;;15.83;59.37
19286;BME280;9776;50.798;6.430;2023-04-29T10:24:20;100531.66;;;16.96;56.45
19286;BME280;9776;50.798;6.430;2023-04-29T10:26:49;100536.44;;;17.73;54.59
19286;BME280;9776;50.798;6.430;2023-04-29T10:29:18;100531.97;;;18.01;54.38
19286;BME280;9776;50.798;6.430;2023-04-29T10:31:47;100533.19;;;17.98;53.88
19286;BME280;9776;50.798;6.430;2023-04-29T10:34:16;100537.00;;;17.89;54.22
19286;BME280;9776;50.798;6.430;2023-04-29T10:36:43;100539.44;;;17.63;54.73
19286;BME280;9776;50.798;6.430;2023-04-29T10:39:19;100536.53;;;17.29;54.91
19286;BME280;9776;50.798;6.430;2023-04-29T10:41:47;100532.75;;;17.02;55.63
19286;BME280;9776;50.798;6.430;2023-04-29T10:44:16;100539.94;;;16.72;56.23
19286;BME280;9776;50.798;6.430;2023-04-29T10:46:42;100541.25;;;16.39;56.48
19286;BME280;9776;50.798;6.430;2023-04-29T10:49:10;100543.09;;;16.01;57.20
19286;BME280;9776;50.798;6.430;2023-04-29T10:51:39;100539.72;;;15.84;57.50
19286;BME280;9776;50.798;6.430;2023-04-29T10:54:08;100545.59;;;15.57;57.92
19286;BME280;9776;50.798;6.430;2023-04-29T10:56:42;100552.97;;;15.39;57.80
19286;BME280;9776;50.798;6.430;2023-04-29T10:59:12;100549.91;;;15.19;58.37
19286;BME280;9776;50.798;6.430;2023-04-29T11:01:47;100548.75;;;15.22;58.04
19286;BME280;9776;50.798;6.430;2023-04-29T11:04:16;100547.44;;;15.18;57.89
19286;BME280;9776;50.798;6.430;2023-04-29T11:06:45;100548.16;;;15.04;57.93
19286;BME280;9776;50.798;6.430;2023-04-29T11:09:14;100550.69;;;14.97;57.94
19286;BME280;9776;50.798;6.430;2023-04-29T11:11:55;100550.19;;;14.94;58.07
19286;BME280;9776;50.798;6.430;2023-04-29T11:14:24;100549.91;;;14.81;58.64
19286;BME280;9776;50.798;6.430;2023-04-29T11:16:53;100551.94;;;14.70;58.79
19286;BME280;9776;50.798;6.430;2023-04-29T11:19:24;100549.16;;;14.56;58.80
19286;BME280;9776;50.798;6.430;2023-04-29T11:22:26;100548.00;;;14.50;59.13
19286;BME280;9776;50.798;6.430;2023-04-29T11:24:55;100540.78;;;14.75;58.71
19286;BME280;9776;50.798;6.430;2023-04-29T11:27:25;100541.09;;;14.88;58.46
19286;BME280;9776;50.798;6.430;2023-04-29T11:29:53;100546.22;;;14.98;57.93
19286;BME280;9776;50.798;6.430;2023-04-29T11:32:29;100549.56;;;14.92;57.98
19286;BME280;9776;50.798;6.430;2023-04-29T11:35:08;100557.91;;;14.72;58.06
19286;BME280;9776;50.798;6.430;2023-04-29T11:37:36;100563.72;;;14.76;58.32
19286;BME280;9776;50.798;6.430;2023-04-29T11:40:04;100561.22;;;14.66;58.57
19286;BME280;9776;50.798;6.430;2023-04-29T11:42:33;100555.78;;;14.52;58.79
19286;BME280;9776;50.798;6.430;2023-04-29T11:45:00;100557.31;;;14.54;59.17
19286;BME280;9776;50.798;6.430;2023-04-29T11:47:27;100562.63;;;14.54;59.26
19286;BME280;9776;50.798;6.430;2023-04-29T11:50:01;100565.59;;;14.51;58.95
19286;BME280;9776;50.798;6.430;2023-04-29T11:52:29;100566.09;;;14.63;59.16
19286;BME280;9776;50.798;6.430;2023-04-29T11:54:56;100562.38;;;14.72;58.84
19286;BME280;9776;50.798;6.430;2023-04-29T11:57:24;100574.50;;;14.83;58.68
19286;BME280;9776;50.798;6.430;2023-04-29T11:59:51;100571.16;;;14.89;58.45
19286;BME280;9776;50.798;6.430;2023-04-29T12:02:20;100566.00;;;14.87;58.47
19286;BME280;9776;50.798;6.430;2023-04-29T12:04:47;100573.38;;;14.61;59.13
19286;BME280;9776;50.798;6.430;2023-04-29T12:07:14;100577.53;;;14.55;59.36
19286;BME280;9776;50.798;6.430;2023-04-29T12:09:43;100581.88;;;14.56;59.55
19286;BME280;9776;50.798;6.430;2023-04-29T12:12:11;100575.22;;;14.44;59.41
19286;BME280;9776;50.798;6.430;2023-04-29T12:14:38;100576.91;;;14.45;59.87
19286;BME280;9776;50.798;6.430;2023-04-29T12:17:05;100574.59;;;14.42;59.53
19286;BME280;9776;50.798;6.430;2023-04-29T12:19:32;100576.03;;;14.29;60.19
19286;BME280;9776;50.798;6.430;2023-04-29T12:22:02;100575.56;;;14.25;59.94
19286;BME280;9776;50.798;6.430;2023-04-29T12:24:32;100577.88;;;14.20;60.60
19286;BME280;9776;50.798;6.430;2023-04-29T12:27:00;100573.56;;;14.27;60.28
19286;BME280;9776;50.798;6.430;2023-04-29T12:29:30;100577.75;;;14.46;60.05
19286;BME280;9776;50.798;6.430;2023-04-29T12:31:57;100575.91;;;14.54;59.58
19286;BME280;9776;50.798;6.430;2023-04-29T12:34:24;100579.88;;;14.50;59.61
19286;BME280;9776;50.798;6.430;2023-04-29T12:36:53;100581.53;;;14.51;59.74
19286;BME280;9776;50.798;6.430;2023-04-29T12:39:20;100582.56;;;14.42;60.16
19286;BME280;9776;50.798;6.430;2023-04-29T12:41:47;100587.88;;;14.34;60.26
19286;BME280;9776;50.798;6.430;2023-04-29T12:44:15;100582.50;;;14.26;60.55
19286;BME280;9776;50.798;6.430;2023-04-29T12:46:41;100583.88;;;14.22;60.78
19286;BME280;9776;50.798;6.430;2023-04-29T12:49:08;100588.00;;;14.16;60.85
19286;BME280;9776;50.798;6.430;2023-04-29T12:51:35;100586.00;;;14.18;61.15
19286;BME280;9776;50.798;6.430;2023-04-29T12:54:03;100589.00;;;14.23;60.74
19286;BME280;9776;50.798;6.430;2023-04-29T12:56:31;100586.50;;;14.30;60.81
19286;BME280;9776;50.798;6.430;2023-04-29T12:59:03;100587.19;;;14.32;60.60
19286;BME280;9776;50.798;6.430;2023-04-29T13:01:32;100591.53;;;14.33;60.87
19286;BME280;9776;50.798;6.430;2023-04-29T13:03:59;100590.16;;;14.37;60.90